Time;durP1;ratioP1;P1;durP2;ratioP2;P2;SDS_P1;SDS_P2;PMS_P1;PMS_P2;Temp;Humidity;BMP_temperature;BMP_pressure;BME280_temperature;BME280_humidity;BME280_pressure;Samples;Min_cycle;Max_cycle;Signal;HPM_P1;HPM_P2
2023/04/09 00:01:10;;;;;;;15.60;10.50;;;9.10;99.90;;;;;;10279660;29;20236;-78
2023/04/09 00:06:51;;;;;;;14.17;9.47;;;9.10;99.90;;;;;;10279858;28;20208;-77
2023/04/09 00:12:13;;;;;;;12.47;9.43;;;9.10;99.90;;;;;;10261491;28;20269;-77
2023/04/09 00:17:34;;;;;;;17.37;10.97;;;9.10;99.90;;;;;;10252888;29;20201;-76
2023/04/09 00:22:55;;;;;;;21.07;12.73;;;9.20;99.90;;;;;;10292472;28;20230;-76
2023/04/09 00:28:16;;;;;;;24.03;13.63;;;9.20;99.90;;;;;;10278852;29;20243;-77
2023/04/09 00:33:37;;;;;;;26.33;14.80;;;9.20;99.90;;;;;;10278126;28;20212;-80
2023/04/09 00:38:58;;;;;;;26.03;14.60;;;9.20;99.90;;;;;;10277939;29;20200;-76
2023/04/09 00:44:19;;;;;;;21.07;14.23;;;9.20;99.90;;;;;;10278416;29;20567;-76
2023/04/09 00:49:41;;;;;;;25.20;15.03;;;9.20;99.90;;;;;;10263541;29;20200;-77
2023/04/09 00:55:04;;;;;;;21.57;13.03;;;9.10;99.90;;;;;;10261369;29;20207;-77
2023/04/09 01:00:26;;;;;;;19.17;12.93;;;9.10;99.90;;;;;;10289898;28;20217;-76
2023/04/09 01:06:06;;;;;;;24.60;14.73;;;9.10;99.90;;;;;;10277916;29;20217;-78
2023/04/09 01:11:49;;;;;;;20.47;13.97;;;9.10;99.90;;;;;;10289634;28;20214;-76
2023/04/09 01:17:31;;;;;;;18.83;13.37;;;9.00;99.90;;;;;;10278909;28;20516;-76
2023/04/09 01:23:18;;;;;;;24.03;14.70;;;9.00;99.90;;;;;;10233421;29;20245;-77
2023/04/09 01:28:44;;;;;;;25.97;15.80;;;9.10;99.90;;;;;;10219787;29;20253;-76
2023/04/09 01:34:07;;;;;;;21.73;14.47;;;9.10;99.90;;;;;;10233818;29;20200;-76
2023/04/09 01:39:29;;;;;;;23.17;16.17;;;9.00;99.90;;;;;;10230253;29;20213;-76
2023/04/09 01:44:51;;;;;;;26.13;17.23;;;8.90;99.90;;;;;;10227024;29;20555;-77
2023/04/09 01:50:12;;;;;;;24.03;16.90;;;8.90;99.90;;;;;;10230522;29;20211;-76
2023/04/09 01:55:33;;;;;;;27.53;18.07;;;8.90;99.90;;;;;;10219123;29;20205;-76
2023/04/09 02:01:23;;;;;;;36.47;21.83;;;8.90;99.90;;;;;;10274203;29;20206;-79
2023/04/09 02:06:58;;;;;;;58.73;32.13;;;8.70;99.90;;;;;;10258663;29;20207;-77
2023/04/09 02:12:20;;;;;;;54.60;33.13;;;8.60;99.90;;;;;;10260486;29;20546;-77
2023/04/09 02:17:41;;;;;;;51.07;27.90;;;8.40;99.90;;;;;;10244187;29;20234;-76
2023/04/09 02:23:02;;;;;;;47.03;26.30;;;8.40;99.90;;;;;;10288132;28;20253;-77
2023/04/09 02:28:24;;;;;;;44.00;24.80;;;8.40;99.90;;;;;;10272950;29;20208;-76
2023/04/09 02:33:45;;;;;;;33.20;20.43;;;8.50;99.90;;;;;;10274202;29;20386;-79
2023/04/09 02:39:06;;;;;;;31.40;19.33;;;8.20;99.90;;;;;;10286479;28;20201;-77
2023/04/09 02:44:28;;;;;;;43.80;22.33;;;8.10;99.90;;;;;;10273494;29;20434;-76
2023/04/09 02:49:49;;;;;;;39.90;21.70;;;8.10;99.90;;;;;;10265011;29;20201;-80
2023/04/09 02:55:11;;;;;;;46.13;26.23;;;8.10;99.90;;;;;;10272322;29;20260;-76
2023/04/09 03:00:32;;;;;;;51.17;28.13;;;8.20;99.90;;;;;;10220661;29;20564;-76
2023/04/09 03:05:53;;;;;;;35.13;21.83;;;8.20;99.90;;;;;;10259493;29;20426;-76
2023/04/09 03:11:14;;;;;;;37.77;21.63;;;8.10;99.90;;;;;;10286684;28;20201;-76
2023/04/09 03:16:36;;;;;;;59.93;35.77;;;8.10;99.90;;;;;;10272151;28;20213;-76
2023/04/09 03:21:57;;;;;;;45.10;28.03;;;8.00;99.90;;;;;;10273140;28;20229;-76
2023/04/09 03:27:21;;;;;;;60.63;33.87;;;7.90;99.90;;;;;;10285464;28;20501;-78
2023/04/09 03:32:45;;;;;;;80.40;41.00;;;7.90;99.90;;;;;;10272984;29;20195;-76
2023/04/09 03:38:07;;;;;;;136.50;65.93;;;7.90;99.90;;;;;;10286164;28;20277;-76
2023/04/09 03:43:28;;;;;;;62.70;34.10;;;8.00;99.90;;;;;;10289171;28;20531;-77
2023/04/09 03:48:50;;;;;;;42.80;23.07;;;8.00;99.90;;;;;;10293621;28;20193;-76
2023/04/09 03:54:12;;;;;;;41.83;22.73;;;8.10;99.90;;;;;;10265703;28;20202;-77
2023/04/09 03:59:34;;;;;;;40.80;21.73;;;8.10;99.90;;;;;;10273920;28;20245;-77
2023/04/09 04:04:55;;;;;;;39.47;20.87;;;8.10;99.90;;;;;;10299435;28;20229;-80
2023/04/09 04:10:21;;;;;;;37.63;22.03;;;8.00;99.90;;;;;;10283980;28;20281;-77
2023/04/09 04:15:42;;;;;;;36.43;20.27;;;8.00;99.90;;;;;;10316110;28;20285;-77
2023/04/09 04:21:15;;;;;;;31.63;20.23;;;7.90;99.90;;;;;;10306537;28;20192;-76
2023/04/09 04:26:41;;;;;;;39.57;23.43;;;8.00;99.90;;;;;;10259687;29;20220;-76
2023/04/09 04:32:05;;;;;;;47.20;24.20;;;7.80;99.90;;;;;;10288153;28;20202;-77
2023/04/09 04:37:30;;;;;;;39.87;23.37;;;7.80;99.90;;;;;;10277013;29;20236;-77
2023/04/09 04:42:53;;;;;;;39.03;21.90;;;7.80;99.90;;;;;;10295718;28;20422;-76
2023/04/09 04:48:14;;;;;;;40.40;23.63;;;7.70;99.90;;;;;;10289070;29;20193;-77
2023/04/09 04:53:35;;;;;;;41.17;22.53;;;7.60;99.90;;;;;;10267524;28;20244;-77
2023/04/09 04:59:03;;;;;;;28.90;18.57;;;7.60;99.90;;;;;;10277926;28;20334;-80
2023/04/09 05:04:38;;;;;;;30.70;17.60;;;7.70;99.90;;;;;;10278215;29;20571;-78
2023/04/09 05:10:04;;;;;;;26.90;16.33;;;7.70;99.90;;;;;;10263222;29;20208;-76
2023/04/09 05:15:30;;;;;;;42.23;24.03;;;7.80;99.90;;;;;;10290674;28;20205;-76
2023/04/09 05:20:52;;;;;;;33.67;20.47;;;7.80;99.90;;;;;;10277139;29;20197;-76
2023/04/09 05:26:14;;;;;;;29.17;18.40;;;7.90;99.90;;;;;;10259506;29;20232;-76
2023/04/09 05:31:49;;;;;;;23.90;14.13;;;7.90;99.90;;;;;;10283940;28;20217;-76
2023/04/09 05:37:24;;;;;;;35.37;20.87;;;7.90;99.90;;;;;;10276597;28;20250;-78
2023/04/09 05:42:46;;;;;;;33.57;20.17;;;7.80;99.90;;;;;;10262366;29;20276;-77
2023/04/09 05:48:19;;;;;;;37.47;22.70;;;7.90;99.90;;;;;;10283452;28;20201;-76
2023/04/09 05:53:41;;;;;;;33.93;20.27;;;7.90;99.90;;;;;;10262031;29;20200;-77
2023/04/09 05:59:04;;;;;;;31.23;18.13;;;7.80;99.90;;;;;;10256660;29;20204;-77
2023/04/09 06:04:26;;;;;;;27.23;16.83;;;7.90;99.90;;;;;;10248257;29;20413;-76
2023/04/09 06:09:47;;;;;;;24.43;15.70;;;8.00;99.90;;;;;;10248902;29;20199;-76
2023/04/09 06:15:09;;;;;;;25.17;15.57;;;8.00;99.90;;;;;;10250600;29;20216;-77
2023/04/09 06:20:30;;;;;;;25.57;15.17;;;8.30;99.90;;;;;;10288241;28;20505;-76
2023/04/09 06:25:51;;;;;;;37.00;18.97;;;8.50;99.90;;;;;;10275254;29;20252;-77
2023/04/09 06:31:12;;;;;;;38.77;20.63;;;8.60;99.90;;;;;;10257489;29;20502;-79
2023/04/09 06:36:33;;;;;;;38.30;19.60;;;8.70;99.90;;;;;;10274856;29;20248;-77
2023/04/09 06:41:54;;;;;;;44.10;20.33;;;8.80;99.90;;;;;;10289350;28;20492;-78
2023/04/09 06:47:30;;;;;;;44.43;20.30;;;8.80;99.90;;;;;;10249363;29;20212;-76
2023/04/09 06:52:52;;;;;;;42.53;20.67;;;9.10;99.90;;;;;;10287695;28;20214;-76
2023/04/09 06:58:13;;;;;;;38.03;18.37;;;10.00;99.90;;;;;;10274123;29;20199;-76
2023/04/09 07:03:33;;;;;;;37.10;16.43;;;11.00;99.90;;;;;;10274463;29;20553;-77
2023/04/09 07:08:55;;;;;;;34.03;16.43;;;11.50;99.90;;;;;;10274325;29;20185;-84
2023/04/09 07:14:16;;;;;;;37.07;17.50;;;11.70;99.90;;;;;;10273247;29;20206;-77
2023/04/09 07:19:36;;;;;;;27.17;15.67;;;11.60;99.90;;;;;;10278042;28;20430;-77
2023/04/09 07:24:58;;;;;;;26.83;15.00;;;11.70;99.90;;;;;;10282005;29;20385;-83
2023/04/09 07:30:18;;;;;;;23.98;14.13;;;12.00;99.90;;;;;;10280504;29;20433;-78
2023/04/09 07:35:40;;;;;;;28.53;14.07;;;12.50;92.90;;;;;;10266884;29;20242;-77
2023/04/09 07:41:01;;;;;;;28.25;13.90;;;12.90;92.50;;;;;;10268654;28;20202;-77
2023/04/09 07:46:22;;;;;;;15.30;9.75;;;12.90;92.10;;;;;;10258348;29;20230;-84
2023/04/09 07:51:43;;;;;;;15.93;10.73;;;12.90;91.90;;;;;;10293679;28;20222;-77
2023/04/09 07:57:04;;;;;;;15.63;9.55;;;13.30;79.40;;;;;;10280024;28;20436;-77
2023/04/09 08:02:25;;;;;;;17.08;11.68;;;13.30;87.60;;;;;;10296667;28;20195;-76
2023/04/09 08:07:47;;;;;;;21.20;11.30;;;13.90;74.20;;;;;;10305296;28;20197;-78
2023/04/09 08:13:08;;;;;;;18.35;12.02;;;14.50;60.70;;;;;;10279615;29;20586;-77
2023/04/09 08:18:30;;;;;;;13.27;9.55;;;15.10;52.20;;;;;;10280019;29;20192;-77
2023/04/09 08:23:51;;;;;;;14.02;9.13;;;14.90;52.00;;;;;;10279442;29;20236;-77
2023/04/09 08:29:14;;;;;;;15.00;8.18;;;14.70;56.40;;;;;;10264241;28;20220;-79
2023/04/09 08:34:35;;;;;;;18.48;10.60;;;15.30;49.30;;;;;;10277805;28;20252;-77
2023/04/09 08:39:56;;;;;;;13.05;8.73;;;16.00;34.80;;;;;;10291456;28;20782;-78
2023/04/09 08:45:17;;;;;;;17.35;8.73;;;16.30;31.80;;;;;;10290328;28;20276;-77
2023/04/09 08:50:39;;;;;;;16.30;8.43;;;17.40;25.40;;;;;;10290172;28;20269;-79
2023/04/09 08:56:00;;;;;;;10.45;6.80;;;18.10;23.10;;;;;;10293597;28;20210;-77
2023/04/09 09:01:28;;;;;;;15.43;7.47;;;18.30;22.10;;;;;;10241932;29;20493;-76
2023/04/09 09:06:50;;;;;;;11.70;6.65;;;18.60;20.50;;;;;;10277834;29;20458;-77
2023/04/09 09:12:11;;;;;;;11.02;6.47;;;19.10;20.10;;;;;;10277588;29;20234;-79
2023/04/09 09:17:33;;;;;;;11.15;6.25;;;20.40;16.70;;;;;;10277018;29;20206;-78
2023/04/09 09:22:55;;;;;;;7.63;5.30;;;21.30;13.80;;;;;;10277313;29;20520;-77
2023/04/09 09:28:16;;;;;;;7.68;5.18;;;21.90;12.00;;;;;;10259562;29;20282;-76
2023/04/09 09:33:38;;;;;;;7.45;5.20;;;21.70;11.10;;;;;;10278291;28;20207;-79
2023/04/09 09:39:08;;;;;;;15.18;5.07;;;21.80;10.10;;;;;;10258884;28;20214;-77
2023/04/09 09:44:31;;;;;;;9.15;5.70;;;21.80;9.30;;;;;;10275950;29;20223;-77
2023/04/09 09:49:53;;;;;;;9.20;4.88;;;21.70;9.10;;;;;;10262117;29;20187;-76
2023/04/09 09:55:15;;;;;;;6.63;3.58;;;22.40;8.40;;;;;;10304453;28;20210;-79
2023/04/09 10:00:39;;;;;;;8.52;4.82;;;22.40;7.40;;;;;;10275044;29;20482;-77
2023/04/09 10:06:01;;;;;;;9.50;4.90;;;21.80;8.00;;;;;;10275925;29;20219;-77
2023/04/09 10:11:23;;;;;;;8.15;4.45;;;21.90;8.10;;;;;;10275696;29;20190;-77
2023/04/09 10:16:46;;;;;;;8.95;5.07;;;21.80;8.10;;;;;;10257512;29;20226;-80
2023/04/09 10:22:10;;;;;;;9.18;5.13;;;22.50;7.40;;;;;;10275469;29;20191;-79
2023/04/09 10:27:31;;;;;;;6.95;4.03;;;23.20;6.60;;;;;;10257754;29;20435;-79
2023/04/09 10:32:52;;;;;;;18.23;10.07;;;23.50;6.00;;;;;;10273646;29;20222;-76
2023/04/09 10:38:14;;;;;;;7.22;3.83;;;23.40;6.40;;;;;;10274836;29;20230;-79
2023/04/09 10:43:36;;;;;;;7.75;4.43;;;23.60;6.10;;;;;;10296864;28;20226;-85
2023/04/09 10:49:15;;;;;;;8.27;3.60;;;23.60;5.40;;;;;;10281658;28;20195;-76
2023/04/09 10:54:47;;;;;;;7.15;4.65;;;23.40;5.80;;;;;;10270179;28;20199;-76
2023/04/09 11:00:08;;;;;;;6.53;4.15;;;23.80;5.10;;;;;;10275142;28;20281;-77
2023/04/09 11:05:33;;;;;;;7.65;3.78;;;23.50;4.80;;;;;;10315315;28;20243;-77
2023/04/09 11:10:57;;;;;;;8.57;3.78;;;23.50;4.90;;;;;;10271931;28;20199;-80
2023/04/09 11:16:19;;;;;;;6.85;3.90;;;23.20;5.80;;;;;;10284775;29;20214;-83
2023/04/09 11:21:45;;;;;;;6.43;3.97;;;23.50;5.60;;;;;;10270681;28;20246;-77
2023/04/09 11:27:06;;;;;;;9.05;4.43;;;23.80;5.30;;;;;;10286318;28;20600;-78
2023/04/09 11:32:30;;;;;;;10.80;5.45;;;23.90;4.90;;;;;;10271258;28;20199;-83
2023/04/09 11:37:51;;;;;;;8.00;4.05;;;22.90;5.20;;;;;;10286584;28;20243;-78
2023/04/09 11:43:14;;;;;;;10.77;4.70;;;21.70;6.70;;;;;;10298818;28;20246;-78
2023/04/09 11:48:35;;;;;;;7.90;4.05;;;21.70;7.50;;;;;;10269873;28;20203;-77
2023/04/09 11:54:02;;;;;;;11.93;6.72;;;22.20;6.80;;;;;;10286559;29;20245;-77
2023/04/09 11:59:23;;;;;;;10.93;5.70;;;21.50;7.90;;;;;;10303832;28;20269;-77
2023/04/09 12:04:50;;;;;;;21.23;10.90;;;21.20;8.30;;;;;;10322081;28;20226;-80
2023/04/09 12:10:12;;;;;;;11.40;6.07;;;21.80;8.10;;;;;;10290568;28;20237;-80
2023/04/09 12:15:35;;;;;;;15.60;6.68;;;22.00;7.80;;;;;;10280468;29;20203;-77
2023/04/09 12:20:56;;;;;;;12.63;4.43;;;21.20;8.30;;;;;;10278468;29;20210;-78
2023/04/09 12:26:17;;;;;;;7.78;3.78;;;21.50;8.30;;;;;;10279608;29;20253;-78
2023/04/09 12:31:38;;;;;;;6.25;4.15;;;21.40;8.60;;;;;;10279399;29;20191;-78
2023/04/09 12:37:00;;;;;;;7.97;3.88;;;21.10;8.50;;;;;;10281017;28;20571;-77
2023/04/09 12:42:21;;;;;;;7.38;4.10;;;21.00;8.90;;;;;;10278998;29;20191;-77
2023/04/09 12:47:42;;;;;;;6.10;3.85;;;20.70;9.00;;;;;;10260794;29;20222;-76
2023/04/09 12:53:03;;;;;;;5.90;3.72;;;20.50;9.80;;;;;;10278273;29;20195;-76
2023/04/09 12:58:24;;;;;;;7.38;4.10;;;20.20;9.80;;;;;;10278510;29;20509;-76
2023/04/09 13:03:45;;;;;;;4.93;3.60;;;20.10;9.90;;;;;;10259556;28;20227;-77
2023/04/09 13:09:06;;;;;;;9.15;3.70;;;19.70;10.20;;;;;;10260997;29;20229;-77
2023/04/09 13:14:27;;;;;;;7.30;3.88;;;19.70;11.30;;;;;;10262383;28;20266;-77
2023/04/09 13:19:50;;;;;;;6.03;4.07;;;19.50;10.10;;;;;;10276814;29;20501;-77
2023/04/09 13:25:11;;;;;;;6.10;3.42;;;19.10;10.30;;;;;;10276357;28;20234;-76
2023/04/09 13:30:33;;;;;;;8.85;4.28;;;19.20;10.70;;;;;;10259946;29;20219;-76
2023/04/09 13:35:54;;;;;;;6.85;3.72;;;18.90;11.00;;;;;;10275017;29;20330;-78
2023/04/09 13:41:15;;;;;;;6.43;3.53;;;18.90;10.20;;;;;;10289309;28;20398;-78
2023/04/09 13:46:36;;;;;;;9.07;4.38;;;18.20;10.90;;;;;;10290587;28;20230;-77
2023/04/09 13:51:58;;;;;;;4.47;3.33;;;18.40;11.10;;;;;;10276391;29;20204;-77
2023/04/09 13:57:19;;;;;;;7.55;4.28;;;18.10;10.60;;;;;;10259201;29;20206;-79
2023/04/09 14:02:40;;;;;;;6.65;3.40;;;17.80;11.40;;;;;;10275017;29;20206;-76
2023/04/09 14:08:01;;;;;;;7.93;3.17;;;17.60;11.70;;;;;;10278972;28;20205;-78
2023/04/09 14:13:23;;;;;;;5.60;2.83;;;17.40;11.90;;;;;;10275536;29;20221;-79
2023/04/09 14:18:44;;;;;;;8.52;4.05;;;17.20;12.40;;;;;;10240838;28;20523;-77
2023/04/09 14:24:05;;;;;;;5.78;3.25;;;17.10;12.90;;;;;;10253317;29;20244;-78
2023/04/09 14:29:27;;;;;;;13.82;7.00;;;17.20;12.70;;;;;;10274059;28;20218;-78
2023/04/09 14:34:47;;;;;;;18.20;6.43;;;17.20;12.80;;;;;;10274620;29;20234;-78
2023/04/09 14:40:08;;;;;;;7.07;3.67;;;17.20;12.70;;;;;;10275038;29;20197;-77
2023/04/09 14:45:29;;;;;;;5.13;3.58;;;17.00;12.90;;;;;;10274017;29;20227;-77
2023/04/09 14:50:51;;;;;;;5.13;3.13;;;16.70;13.00;;;;;;10274708;29;20190;-77
2023/04/09 14:56:12;;;;;;;8.18;3.47;;;16.50;13.20;;;;;;10274556;29;20330;-76
2023/04/09 15:01:33;;;;;;;7.30;4.13;;;16.50;13.10;;;;;;10283420;28;20500;-77
2023/04/09 15:06:54;;;;;;;9.93;6.93;;;16.20;13.30;;;;;;10286931;28;20273;-77
2023/04/09 15:12:15;;;;;;;8.57;5.75;;;16.20;13.80;;;;;;10272695;29;20198;-77
2023/04/09 15:17:36;;;;;;;10.93;6.47;;;16.10;13.90;;;;;;10286230;28;20412;-77
2023/04/09 15:22:58;;;;;;;7.90;5.10;;;16.00;14.30;;;;;;10274053;29;20586;-77
2023/04/09 15:28:19;;;;;;;7.15;3.30;;;15.90;14.30;;;;;;10287877;28;20521;-77
2023/04/09 15:33:44;;;;;;;6.78;3.13;;;15.70;15.10;;;;;;10256872;29;20209;-77
2023/04/09 15:39:05;;;;;;;5.30;3.10;;;15.50;16.10;;;;;;10197981;29;20203;-77
2023/04/09 15:44:26;;;;;;;33.50;18.80;;;15.40;17.10;;;;;;10218194;29;20239;-76
2023/04/09 15:49:47;;;;;;;9.30;5.97;;;15.40;17.90;;;;;;10201880;29;20240;-78
2023/04/09 15:55:08;;;;;;;7.25;4.03;;;15.20;18.10;;;;;;10200404;29;20202;-77
2023/04/09 16:00:29;;;;;;;9.75;3.72;;;15.10;17.90;;;;;;10201301;29;20204;-77
2023/04/09 16:05:50;;;;;;;9.43;4.20;;;15.20;17.70;;;;;;10227150;28;20225;-78
2023/04/09 16:11:12;;;;;;;6.80;3.40;;;15.00;17.90;;;;;;10184994;29;20219;-78
2023/04/09 16:16:32;;;;;;;4.28;2.58;;;14.50;18.50;;;;;;10160493;29;20214;-80
2023/04/09 16:21:53;;;;;;;5.22;3.40;;;14.50;18.60;;;;;;10161700;29;20194;-77
2023/04/09 16:27:15;;;;;;;9.55;3.58;;;14.30;18.80;;;;;;10189222;29;20423;-80
2023/04/09 16:32:36;;;;;;;4.18;2.50;;;14.10;19.10;;;;;;10174654;29;20417;-82
2023/04/09 16:37:57;;;;;;;5.40;2.85;;;13.90;20.20;;;;;;10263382;28;20323;-78
2023/04/09 16:43:18;;;;;;;6.93;3.28;;;13.70;21.00;;;;;;10227294;29;20260;-77
2023/04/09 16:48:40;;;;;;;4.80;3.22;;;13.50;22.10;;;;;;10253739;29;20209;-80
2023/04/09 16:54:01;;;;;;;5.85;3.42;;;13.50;23.00;;;;;;10239483;29;20536;-77
2023/04/09 16:59:23;;;;;;;8.15;4.10;;;13.30;24.50;;;;;;10238185;29;20405;-77
2023/04/09 17:04:43;;;;;;;7.72;4.38;;;13.20;27.00;;;;;;10238686;29;20246;-77
2023/04/09 17:10:05;;;;;;;7.75;3.53;;;13.30;27.80;;;;;;10236802;29;20378;-81
2023/04/09 17:15:26;;;;;;;9.50;3.95;;;13.10;28.90;;;;;;10238527;29;20219;-78
2023/04/09 17:20:48;;;;;;;6.63;3.63;;;13.00;31.90;;;;;;10238127;29;20375;-78
2023/04/09 17:26:09;;;;;;;7.47;4.25;;;12.90;33.90;;;;;;10251844;29;20591;-77
2023/04/09 17:31:30;;;;;;;9.98;4.35;;;12.60;38.30;;;;;;10253048;28;20226;-76
2023/04/09 17:36:56;;;;;;;14.02;7.70;;;12.50;43.80;;;;;;10261426;28;20322;-76
2023/04/09 17:42:18;;;;;;;20.23;8.67;;;12.40;50.20;;;;;;10292176;29;20222;-76
2023/04/09 17:47:39;;;;;;;10.68;5.68;;;12.10;57.30;;;;;;10282019;29;20219;-77
2023/04/09 17:53:00;;;;;;;10.77;6.00;;;11.90;60.80;;;;;;10274116;29;20209;-78
2023/04/09 17:58:23;;;;;;;9.73;5.23;;;11.70;61.50;;;;;;10275905;29;20198;-76
2023/04/09 18:03:44;;;;;;;10.57;4.30;;;11.60;63.20;;;;;;10235792;29;20218;-79
2023/04/09 18:09:06;;;;;;;8.43;5.70;;;11.70;63.10;;;;;;10268773;29;20203;-77
2023/04/09 18:14:31;;;;;;;10.63;5.50;;;11.70;62.70;;;;;;10275505;29;20239;-77
2023/04/09 18:19:53;;;;;;;16.10;9.30;;;11.60;63.00;;;;;;10273514;28;20210;-76
2023/04/09 18:25:15;;;;;;;13.80;8.77;;;11.40;64.10;;;;;;10235505;29;20230;-81
2023/04/09 18:30:37;;;;;;;10.93;6.33;;;11.30;65.90;;;;;;10248022;29;20194;-76
2023/04/09 18:36:00;;;;;;;9.03;5.23;;;11.20;69.00;;;;;;10248676;29;20240;-76
2023/04/09 18:41:25;;;;;;;7.30;4.27;;;11.10;54.10;;;;;;10274590;29;20193;-76
2023/04/09 18:46:46;;;;;;;10.87;4.70;;;11.00;49.40;;;;;;10274742;29;20299;-75
2023/04/09 18:52:09;;;;;;;6.57;3.87;;;10.70;39.50;;;;;;10277683;28;20200;-81
2023/04/09 18:57:32;;;;;;;13.57;4.47;;;10.60;34.30;;;;;;10273473;28;20294;-77
2023/04/09 19:02:53;;;;;;;10.60;4.50;;;10.50;32.90;;;;;;10277727;28;20206;-77
2023/04/09 19:08:15;;;;;;;7.93;4.37;;;10.50;33.30;;;;;;10269350;29;20310;-76
2023/04/09 19:13:36;;;;;;;7.33;4.00;;;10.40;36.30;;;;;;10278346;28;20212;-78
2023/04/09 19:18:58;;;;;;;15.27;9.00;;;10.30;36.60;;;;;;10281144;29;20495;-75
2023/04/09 19:24:19;;;;;;;33.70;18.23;;;10.30;41.20;;;;;;10281182;29;20243;-76
2023/04/09 19:29:40;;;;;;;67.77;34.10;;;10.20;45.00;;;;;;10281661;29;20200;-81
2023/04/09 19:35:01;;;;;;;101.30;52.57;;;10.10;52.10;;;;;;10280645;29;20709;-76
2023/04/09 19:40:22;;;;;;;67.70;36.10;;;10.10;59.60;;;;;;10281373;29;20200;-76
2023/04/09 19:45:43;;;;;;;47.17;25.07;;;10.00;70.40;;;;;;10266915;29;20526;-80
2023/04/09 19:51:04;;;;;;;62.93;31.43;;;9.80;77.30;;;;;;10280173;29;20211;-76
2023/04/09 19:56:25;;;;;;;58.67;28.43;;;9.70;84.80;;;;;;10280710;29;20197;-80
2023/04/09 20:01:47;;;;;;;36.47;18.67;;;9.70;87.20;;;;;;10280263;29;20256;-76
2023/04/09 20:07:08;;;;;;;30.10;16.37;;;9.50;91.90;;;;;;10279382;29;20283;-76
2023/04/09 20:12:29;;;;;;;22.57;12.53;;;9.40;92.10;;;;;;10279120;28;20210;-76
2023/04/09 20:17:51;;;;;;;16.57;9.67;;;9.40;93.10;;;;;;10279718;29;20222;-77
2023/04/09 20:23:12;;;;;;;20.57;11.93;;;9.30;93.80;;;;;;10279704;28;20194;-82
2023/04/09 20:28:34;;;;;;;26.67;13.53;;;9.20;93.80;;;;;;10278987;29;20418;-76
2023/04/09 20:33:54;;;;;;;23.63;12.40;;;9.20;94.30;;;;;;10293541;28;20220;-76
2023/04/09 20:39:17;;;;;;;19.70;11.57;;;9.00;95.30;;;;;;10279232;29;20423;-77
2023/04/09 20:44:38;;;;;;;21.53;12.43;;;8.90;95.60;;;;;;10264669;29;20237;-76
2023/04/09 20:50:00;;;;;;;23.00;12.17;;;8.80;96.60;;;;;;10261209;29;20202;-79
2023/04/09 20:55:20;;;;;;;19.40;11.63;;;8.80;96.10;;;;;;10278532;29;20199;-76
2023/04/09 21:00:41;;;;;;;20.17;11.60;;;8.80;95.70;;;;;;10261005;29;20230;-75
2023/04/09 21:06:02;;;;;;;19.77;11.63;;;8.80;96.10;;;;;;10265249;29;20251;-76
2023/04/09 21:11:24;;;;;;;18.10;10.80;;;8.80;95.90;;;;;;10277986;29;20257;-77
2023/04/09 21:16:44;;;;;;;17.50;10.40;;;8.80;95.80;;;;;;10277478;29;20198;-76
2023/04/09 21:22:05;;;;;;;22.20;11.57;;;8.80;96.10;;;;;;10276561;29;20321;-76
2023/04/09 21:27:27;;;;;;;40.37;23.17;;;8.60;96.40;;;;;;10277455;29;20222;-77
2023/04/09 21:32:48;;;;;;;47.30;28.43;;;8.70;96.50;;;;;;10254615;29;20201;-83
2023/04/09 21:38:09;;;;;;;69.50;40.00;;;8.50;96.70;;;;;;10241017;29;20560;-82
2023/04/09 21:43:30;;;;;;;76.40;42.60;;;8.50;97.10;;;;;;10276860;29;20270;-76
2023/04/09 21:48:51;;;;;;;70.37;39.23;;;8.50;96.90;;;;;;10275605;29;20356;-81
2023/04/09 21:54:12;;;;;;;62.60;35.33;;;8.40;97.20;;;;;;10276551;29;20272;-77
2023/04/09 21:59:35;;;;;;;50.73;27.20;;;8.20;97.50;;;;;;10275926;29;20233;-76
2023/04/09 22:04:58;;;;;;;44.33;21.60;;;8.10;98.00;;;;;;10285525;28;20242;-77
2023/04/09 22:10:19;;;;;;;55.27;29.17;;;8.00;98.50;;;;;;10275532;29;20212;-75
2023/04/09 22:15:40;;;;;;;57.90;31.10;;;8.00;98.80;;;;;;10274243;29;20213;-75
2023/04/09 22:21:02;;;;;;;48.27;27.67;;;8.00;98.30;;;;;;10274756;29;20509;-76
2023/04/09 22:26:23;;;;;;;41.53;23.07;;;7.80;99.00;;;;;;10275212;29;20222;-75
2023/04/09 22:31:44;;;;;;;46.10;22.47;;;7.80;99.30;;;;;;10274148;29;20408;-76
2023/04/09 22:37:05;;;;;;;42.17;24.13;;;7.90;99.30;;;;;;10274508;29;20252;-78
2023/04/09 22:42:26;;;;;;;30.00;15.53;;;7.70;98.90;;;;;;10260156;29;20213;-75
2023/04/09 22:47:47;;;;;;;22.33;12.07;;;7.60;99.50;;;;;;10256281;28;20250;-77
2023/04/09 22:53:08;;;;;;;16.50;10.10;;;7.50;99.50;;;;;;10287456;28;20452;-75
2023/04/09 22:58:30;;;;;;;15.50;9.53;;;7.30;99.60;;;;;;10273983;29;20190;-76
2023/04/09 23:03:50;;;;;;;14.10;8.80;;;7.10;99.90;;;;;;10288758;28;20212;-80
2023/04/09 23:09:12;;;;;;;17.87;10.00;;;7.00;99.90;;;;;;10257278;29;20241;-76
2023/04/09 23:14:33;;;;;;;17.43;10.07;;;6.90;99.90;;;;;;10274194;29;20196;-75
2023/04/09 23:19:54;;;;;;;13.40;8.13;;;6.90;99.90;;;;;;10273528;29;20227;-82
2023/04/09 23:25:15;;;;;;;16.53;9.87;;;6.80;99.90;;;;;;10274401;29;20276;-77
2023/04/09 23:30:36;;;;;;;17.47;11.00;;;6.90;99.90;;;;;;10286144;28;20277;-75
2023/04/09 23:35:57;;;;;;;21.00;11.23;;;6.80;99.90;;;;;;10272419;29;20250;-82
2023/04/09 23:41:18;;;;;;;23.17;11.73;;;6.70;99.90;;;;;;10274122;29;20198;-79
2023/04/09 23:46:40;;;;;;;22.80;13.80;;;6.50;99.90;;;;;;10288276;28;20245;-77
2023/04/09 23:52:01;;;;;;;24.80;13.73;;;6.50;99.90;;;;;;10285303;28;20366;-76
2023/04/09 23:57:23;;;;;;;27.57;19.43;;;6.40;99.90;;;;;;10273285;28;20393;-75
